Latest Coastal Weather Observations for Cape Moreton

IDQ60701

Issued at 12:55 pm EST Sunday 26 October 2014 (issued every 10 minutes, with the page automatically refreshed every 10 minutes)

About coastal observations | Map of coastal stations | Coastal observations for QLD | Marine services | Other Formats
Station Details ID: 040043 Name: CAPE MORETON LIGHTHOUSE Lat: -27.03 Lon: 153.47 Height: 99.9 m
Data from the previous 72 hours. | See also: Recent months at Cape Moreton
Date/Time
EST
Temp

°C
Wind Pressure Rain
since 9am
mm
Weather Cloud Vis
km
Sea
Height
m
Swell
Dir
 
Speed
knots
Gust
knots
hPa Trend Height
m
Period
s
Dir
26/12:30pm 23.6 N 18 24 1014.5 - 0.0 - - - - - - -
26/12:00pm 23.8 N 19 25 1015.0 - 0.0 - - - - - - -
26/11:30am 23.8 N 17 24 1015.3 - 0.0 - - - - - - -
26/11:00am 23.7 N 18 23 1015.9 - 0.0 - - - - - - -
26/10:30am 23.1 N 18 22 1016.2 - 0.0 - - - - - - -
26/10:00am 22.8 N 21 24 1016.6 - 0.0 - - - - - - -
26/09:30am 22.1 N 20 25 1017.0 - 0.0 - - - - - - -
26/09:00am 22.2 NNW 19 27 1017.1 - 0.0 - - - - - - -
26/08:30am 22.0 NNW 19 26 1017.0 - 0.0 - - - - - - -
26/08:00am 21.4 NNW 19 25 1017.1 - 0.0 - - - - - - -
26/07:30am 21.3 NNW 20 27 1016.8 - 0.0 - - - - - - -
26/07:01am 20.9 NNW 17 27 1016.8 - 0.0 - - - - - - -
26/07:00am 20.8 NNW 18 27 1016.8 - 0.0 - - - - - - -
26/06:30am 20.8 NNW 19 25 1016.8 - 0.0 - - - - - - -
26/06:00am 20.5 NNW 17 24 1016.6 - 0.0 - - - - - - -
26/05:30am 20.4 NNW 19 25 1016.2 - 0.0 - - - - - - -
26/05:00am 20.5 NNW 20 27 1015.9 - 0.0 - - - - - - -
26/04:30am 20.4 NNW 23 30 1015.4 - 0.0 - - - - - - -
26/04:00am 20.5 NW 22 28 1015.5 - 0.0 - - - - - - -
26/03:30am 20.4 NNW 20 28 1015.4 - 0.0 - - - - - - -
26/03:00am 20.4 NNW 20 27 1015.4 - 0.0 - - - - - - -
26/02:48am 20.5 NW 21 31 1015.4 - 0.0 - - - - - - -
26/02:30am 20.4 NW 25 33 1014.9 - 0.0 - - - - - - -
26/02:08am 20.6 NNW 24 34 1015.0 - 0.0 - - - - - - -
26/02:00am 20.4 NNW 25 34 1015.1 - 0.0 - - - - - - -
26/01:59am 20.5 NNW 24 34 1015.1 - 0.0 - - - - - - -
26/01:30am 20.6 NNW 23 31 1015.6 - 0.0 - - - - - - -
26/01:00am 20.7 NNW 19 25 1016.4 - 0.0 - - - - - - -
26/12:30am 20.8 NNW 20 27 1016.8 - 0.0 - - - - - - -
26/12:00am 20.8 NNW 18 25 1017.2 - 0.0 - - - - - - -
 
Date/Time
EST
Temp

°C
Wind Pressure Rain
since 9am
mm
Weather Cloud Vis
km
Sea
Height
m
Swell
Dir
 
Speed
knots
Gust
knots
hPa Trend Height
m
Period
s
Dir
25/11:30pm 21.0 NNW 19 25 1017.3 - 0.0 - - - - - - -
25/11:00pm 21.2 NNW 20 28 1017.4 - 0.0 - - - - - - -
25/10:30pm 21.3 N 22 28 1017.7 - 0.0 - - - - - - -
25/10:00pm 21.5 N 21 26 1017.5 - 0.0 - - - - - - -
25/09:30pm 21.6 N 25 32 1017.1 - 0.0 - - - - - - -
25/09:00pm 21.7 N 26 32 1016.9 - 0.0 - - - - - - -
25/08:30pm 21.8 N 24 30 1016.6 - 0.0 - - - - - - -
25/08:00pm 21.8 N 25 32 1016.5 - 0.0 - - - - - - -
25/07:30pm 21.8 N 25 30 1016.2 - 0.0 - - - - - - -
25/07:00pm 21.6 N 21 28 1016.0 - 0.0 - - - - - - -
25/06:30pm 21.7 N 18 24 1016.0 - 0.0 - - - - - - -
25/06:00pm 21.8 N 18 25 1015.7 - 0.0 - - - - - - -
25/05:30pm 21.9 N 18 25 1015.4 - 0.0 - - - - - - -
25/05:00pm 22.1 N 18 25 1015.1 - 0.0 - - - - - - -
25/04:33pm 22.4 N 21 31 1014.8 - 0.0 - - - - - - -
25/04:30pm 22.2 N 22 31 1014.8 - 0.0 - - - - - - -
25/04:00pm 22.2 N 21 28 1014.8 - 0.0 - - - - - - -
25/03:30pm 22.5 N 19 27 1015.1 - 0.0 - - - - - - -
25/03:00pm 22.7 N 20 27 1015.3 - 0.0 - - - - - - -
25/02:30pm 23.2 N 19 26 1015.8 - 0.0 - - - - - - -
25/02:00pm 23.3 N 20 25 1016.5 - 0.0 - - - - - - -
25/01:30pm 23.3 N 19 23 1017.0 - 0.0 - - - - - - -
25/01:00pm 23.6 N 16 22 1017.6 - 0.0 - - - - - - -
25/12:30pm 22.9 N 17 23 1018.1 - 0.0 - - - - - - -
25/12:00pm 23.0 N 17 21 1018.6 - 0.0 - - - - - - -
25/11:30am 22.7 N 18 23 1018.9 - 0.0 - - - - - - -
25/11:00am 22.6 N 16 22 1019.5 - 0.0 - - - - - - -
25/10:30am 22.7 NNW 13 20 1020.1 - 0.0 - - - - - - -
25/10:00am 22.9 NNW 13 18 1020.6 - 0.0 - - - - - - -
25/09:30am 22.2 NNW 12 17 1020.9 - 0.0 - - - - - - -
25/09:00am 21.9 NNW 13 18 1021.0 - 0.0 - - - - - - -
25/08:30am 21.3 NW 13 16 1021.3 - 0.0 - - - - - - -
25/08:00am 21.2 NW 13 16 1021.1 - 0.0 - - - - - - -
25/07:30am 20.9 NW 10 15 1021.2 - 0.0 - - - - - - -
25/07:00am 20.7 NW 9 13 1020.9 - 0.0 - - - - - - -
25/06:30am 20.4 NW 10 14 1020.7 - 0.0 - - - - - - -
25/06:00am 20.4 NNW 12 17 1020.1 - 0.0 - - - - - - -
25/05:30am 20.3 N 13 16 1019.9 - 0.0 - - - - - - -
25/05:00am 20.2 N 13 17 1019.7 - 0.0 - - - - - - -
25/04:30am 20.0 N 11 15 1019.6 - 0.0 - - - - - - -
25/04:00am 20.0 N 11 15 1019.5 - 0.0 - - - - - - -
25/03:30am 19.9 N 11 15 1019.4 - 0.0 - - - - - - -
25/03:00am 20.0 N 13 16 1018.9 - 0.0 - - - - - - -
25/02:30am 19.9 N 12 16 1018.8 - 0.0 - - - - - - -
25/02:00am 19.9 N 14 18 1018.4 - 0.0 - - - - - - -
25/01:30am 19.9 N 13 17 1019.1 - 0.0 - - - - - - -
25/01:00am 20.0 N 11 15 1020.0 - 0.0 - - - - - - -
25/12:30am 20.0 N 11 14 1020.4 - 0.0 - - - - - - -
25/12:00am 20.1 N 11 15 1020.7 - 0.0 - - - - - - -
 
Date/Time
EST
Temp

°C
Wind Pressure Rain
since 9am
mm
Weather Cloud Vis
km
Sea
Height
m
Swell
Dir
 
Speed
knots
Gust
knots
hPa Trend Height
m
Period
s
Dir
24/11:30pm 20.2 N 11 15 1021.2 - 0.0 - - - - - - -
24/11:00pm 20.2 N 12 16 1021.7 - 0.0 - - - - - - -
24/10:30pm 20.3 N 12 16 1021.7 - 0.0 - - - - - - -
24/10:00pm 20.3 N 12 16 1021.9 - 0.0 - - - - - - -
24/09:30pm 20.3 N 13 17 1022.2 - 0.0 - - - - - - -
24/09:00pm 20.3 N 15 19 1021.9 - 0.0 - - - - - - -
24/08:30pm 20.2 N 13 17 1021.9 - 0.0 - - - - - - -
24/08:00pm 20.3 NNE 14 18 1021.8 - 0.0 - - - - - - -
24/07:30pm 20.3 NNE 14 17 1021.8 - 0.0 - - - - - - -
24/07:00pm 20.2 NNE 15 19 1021.4 - 0.0 - - - - - - -
24/06:30pm 20.2 NNE 14 19 1021.0 - 0.0 - - - - - - -
24/06:00pm 20.3 NNE 17 20 1020.5 - 0.0 - - - - - - -
24/05:30pm 20.4 NE 14 18 1020.3 - 0.0 - - - - - - -
24/05:00pm 20.5 NE 15 18 1020.1 - 0.0 - - - - - - -
24/04:30pm 20.7 NE 15 19 1019.7 - 0.0 - - - - - - -
24/04:00pm 20.9 ENE 16 19 1019.7 - 0.0 - - - - - - -
24/03:30pm 21.2 ENE 14 17 1019.8 - 0.0 - - - - - - -
24/03:00pm 21.3 ENE 13 17 1020.0 - 0.0 - - - - - - -
24/02:30pm 21.8 ENE 10 14 1020.3 - 0.0 - - - - - - -
24/02:00pm 22.9 NE 10 13 1020.6 - 0.0 - - - - - - -
24/01:30pm 23.5 NE 10 12 1020.9 - 0.0 - - - - - - -
24/01:00pm 23.6 NNE 10 13 1021.1 - 0.0 - - - - - - -
24/12:30pm 23.9 NNE 9 12 1021.4 - 0.0 - - - - - - -
24/12:00pm 24.0 NNE 9 13 1021.5 - 0.0 - - - - - - -
24/11:30am 23.0 N 6 9 1022.0 - 0.0 - - - - - - -
24/11:00am 22.8 N 5 7 1022.1 - 0.0 - - - - - - -
24/10:30am 23.1 N 6 9 1022.5 - 0.0 - - - - - - -
24/10:00am 22.2 NW 6 9 1022.7 - 0.0 - - - - - - -
24/09:30am 22.0 WNW 5 10 1023.0 - 0.0 - - - - - - -
24/09:00am 21.9 NNW 6 9 1022.9 - 0.0 - - - - - - -
24/08:30am 21.6 N 5 6 1022.8 - 0.0 - - - - - - -
24/08:00am 21.4 NW 4 6 1022.8 - 0.0 - - - - - - -
24/07:30am 21.5 N 4 6 1022.5 - 0.0 - - - - - - -
24/07:00am 21.1 N 4 6 1022.2 - 0.0 - - - - - - -
24/06:30am 20.7 NNE 5 7 1022.0 - 0.0 - - - - - - -
24/06:00am 20.1 NNE 6 8 1021.9 - 0.0 - - - - - - -
24/05:30am 19.8 N 7 10 1021.5 - 0.0 - - - - - - -
24/05:00am 19.8 N 6 9 1021.4 - 0.0 - - - - - - -
24/04:30am 19.5 N 7 9 1021.0 - 0.0 - - - - - - -
24/04:00am 19.5 N 8 10 1020.7 - 0.0 - - - - - - -
24/03:30am 19.3 N 9 11 1020.5 - 0.0 - - - - - - -
24/03:00am 19.4 N 9 14 1020.5 - 0.0 - - - - - - -
24/02:30am 19.3 N 9 12 1020.5 - 0.0 - - - - - - -
24/02:00am 19.3 NNE 11 13 1020.3 - 0.0 - - - - - - -
24/01:30am 19.3 NNE 11 14 1020.4 - 0.0 - - - - - - -
24/01:00am 19.3 NNE 11 14 1020.7 - 0.0 - - - - - - -
24/12:30am 19.3 NNE 11 13 1021.1 - 0.0 - - - - - - -
24/12:00am 19.3 NNE 11 14 1021.3 - 0.0 - - - - - - -
 
Date/Time
EST
Temp

°C
Wind Pressure Rain
since 9am
mm
Weather Cloud Vis
km
Sea
Height
m
Swell
Dir
 
Speed
knots
Gust
knots
hPa Trend Height
m
Period
s
Dir
23/11:30pm 19.4 NNE 11 13 1021.5 - 0.0 - - - - - - -
23/11:00pm 19.4 NNE 11 13 1021.6 - 0.0 - - - - - - -
23/10:30pm 19.4 NNE 13 16 1021.3 - 0.0 - - - - - - -
23/10:00pm 19.5 NNE 11 13 1021.7 - 0.0 - - - - - - -
23/09:30pm 19.5 NNE 10 12 1021.7 - 0.0 - - - - - - -
23/09:00pm 19.7 NE 12 17 1021.2 - 0.0 - - - - - - -
23/08:30pm 19.7 NE 12 16 1021.0 - 0.0 - - - - - - -
23/08:00pm 19.7 NE 12 16 1020.6 - 0.0 - - - - - - -
23/07:30pm 19.7 NE 12 15 1020.3 - 0.0 - - - - - - -
23/07:00pm 19.7 NNE 11 15 1020.1 - 0.0 - - - - - - -
23/06:30pm 19.7 NNE 12 15 1019.8 - 0.0 - - - - - - -
23/06:00pm 19.8 NE 12 15 1019.3 - 0.0 - - - - - - -
23/05:30pm 19.9 NE 14 18 1018.6 - 0.0 - - - - - - -
23/05:00pm 20.1 NE 14 17 1018.3 - 0.0 - - - - - - -
23/04:30pm 20.2 NE 12 17 1018.2 - 0.0 - - - - - - -
23/04:00pm 20.5 NE 11 15 1018.0 - 0.0 - - - - - - -
23/03:30pm 20.6 ENE 13 16 1017.9 - 0.0 - - - - - - -
23/03:00pm 20.8 NE 12 15 1018.0 - 0.0 - - - - - - -
23/02:30pm 21.2 NE 11 14 1018.2 - 0.0 - - - - - - -
23/02:00pm 21.8 ENE 9 11 1018.7 - 0.0 - - - - - - -
23/01:30pm 22.3 NE 8 10 1019.2 - 0.0 - - - - - - -
23/01:00pm 22.6 NNE 7 10 1019.8 - 0.0 - - - - - - -

Other Formats:

Comma delimited format used in spreadsheet applications
http://www.bom.gov.au/fwo/IDQ60701/IDQ60701.94594.axf

JavaScript Object Notation format (JSON) in row-major order
http://www.bom.gov.au/fwo/IDQ60701/IDQ60701.94594.json